Time;durP1;ratioP1;P1;durP2;ratioP2;P2;SDS_P1;SDS_P2;PMS_P1;PMS_P2;Temp;Humidity;BMP_temperature;BMP_pressure;BME280_temperature;BME280_humidity;BME280_pressure;Samples;Min_cycle;Max_cycle;Signal;HPM_P1;HPM_P2
2023/05/18 00:01:11;;;;;;;8.65;4.47;;;7.50;99.90;;;;;;4971755;28;20034;-75
2023/05/18 00:03:37;;;;;;;9.60;4.00;;;7.50;99.90;;;;;;4970151;28;20097;-76
2023/05/18 00:06:05;;;;;;;9.82;5.22;;;7.40;99.90;;;;;;4972382;28;20085;-75
2023/05/18 00:08:41;;;;;;;10.98;4.50;;;7.40;99.90;;;;;;4974176;28;20038;-75
2023/05/18 00:11:06;;;;;;;11.73;4.47;;;7.40;99.90;;;;;;4971118;28;20065;-75
2023/05/18 00:13:32;;;;;;;10.63;4.70;;;7.40;99.90;;;;;;4969719;28;20054;-75
2023/05/18 00:15:58;;;;;;;10.50;5.07;;;7.40;99.90;;;;;;4972307;28;20059;-75
2023/05/18 00:18:26;;;;;;;9.73;4.30;;;7.40;99.90;;;;;;4967081;28;20031;-75
2023/05/18 00:20:57;;;;;;;10.05;5.25;;;7.30;99.90;;;;;;4967678;28;20035;-75
2023/05/18 00:23:24;;;;;;;9.25;4.97;;;7.40;99.90;;;;;;4971856;28;20035;-75
2023/05/18 00:25:50;;;;;;;11.60;5.18;;;7.40;99.90;;;;;;4967722;28;20037;-75
2023/05/18 00:28:22;;;;;;;10.98;5.45;;;7.30;99.90;;;;;;4969935;28;20030;-75
2023/05/18 00:30:47;;;;;;;12.13;5.15;;;7.20;99.90;;;;;;4965924;28;20031;-75
2023/05/18 00:33:13;;;;;;;11.32;4.88;;;7.20;99.90;;;;;;4965127;28;20035;-75
2023/05/18 00:35:38;;;;;;;12.27;4.95;;;7.20;99.90;;;;;;4966749;28;20034;-75
2023/05/18 00:38:04;;;;;;;8.85;4.22;;;7.20;99.90;;;;;;4985380;28;20488;-75
2023/05/18 00:40:30;;;;;;;7.50;4.03;;;7.20;99.90;;;;;;4970827;28;20441;-75
2023/05/18 00:42:55;;;;;;;9.80;4.03;;;7.20;99.90;;;;;;4967104;28;20118;-75
2023/05/18 00:45:21;;;;;;;10.25;4.60;;;7.10;99.90;;;;;;4965921;28;20024;-75
2023/05/18 00:47:47;;;;;;;9.70;4.32;;;7.10;99.90;;;;;;4962415;28;20521;-75
2023/05/18 00:50:13;;;;;;;8.07;4.50;;;7.10;99.90;;;;;;4960476;28;20026;-75
2023/05/18 00:52:43;;;;;;;10.02;4.07;;;7.00;99.90;;;;;;4962124;28;20096;-75
2023/05/18 00:55:11;;;;;;;9.93;4.55;;;7.00;99.90;;;;;;4967856;28;20089;-75
2023/05/18 00:57:37;;;;;;;9.15;4.38;;;6.90;99.90;;;;;;4968928;28;20114;-75
2023/05/18 01:00:06;;;;;;;10.85;4.40;;;6.90;99.90;;;;;;4971938;28;20122;-74
2023/05/18 01:02:35;;;;;;;10.82;4.75;;;6.80;99.90;;;;;;4968124;28;20038;-75
2023/05/18 01:05:12;;;;;;;8.73;4.95;;;6.80;99.90;;;;;;4968696;28;20023;-74
2023/05/18 01:07:41;;;;;;;12.45;5.13;;;6.80;99.90;;;;;;4971104;28;20022;-73
2023/05/18 01:10:12;;;;;;;10.10;4.93;;;6.80;99.90;;;;;;4969245;28;20114;-74
2023/05/18 01:12:48;;;;;;;16.30;5.45;;;6.80;99.90;;;;;;4967620;28;20355;-74
2023/05/18 01:15:32;;;;;;;15.95;6.30;;;6.70;99.90;;;;;;4965495;28;20023;-74
2023/05/18 01:18:37;;;;;;;11.07;5.55;;;6.70;99.90;;;;;;4970784;28;20045;-74
2023/05/18 01:21:10;;;;;;;14.80;6.10;;;6.70;99.90;;;;;;4966939;28;20041;-74
2023/05/18 01:24:09;;;;;;;13.48;5.63;;;6.60;99.90;;;;;;4968673;28;20544;-74
2023/05/18 01:26:39;;;;;;;10.48;5.70;;;6.70;99.90;;;;;;4968987;28;20525;-74
2023/05/18 01:29:08;;;;;;;11.13;5.80;;;6.60;99.90;;;;;;4967210;28;20039;-74
2023/05/18 01:31:37;;;;;;;11.52;6.32;;;6.60;99.90;;;;;;4965485;28;20054;-74
2023/05/18 01:34:02;;;;;;;17.83;6.43;;;6.50;99.90;;;;;;4967545;28;20457;-74
2023/05/18 01:36:28;;;;;;;12.50;5.97;;;6.50;99.90;;;;;;4970721;28;20055;-74
2023/05/18 01:38:55;;;;;;;18.95;7.32;;;6.50;99.90;;;;;;4970100;28;20146;-74
2023/05/18 01:41:26;;;;;;;14.85;6.63;;;6.40;99.90;;;;;;4969210;28;20026;-74
2023/05/18 01:44:01;;;;;;;14.52;6.13;;;6.40;99.90;;;;;;4986314;28;20031;-74
2023/05/18 01:46:41;;;;;;;13.93;6.28;;;6.40;99.90;;;;;;4967613;28;20033;-74
2023/05/18 01:49:26;;;;;;;12.73;5.18;;;6.40;99.90;;;;;;4968694;28;20061;-74
2023/05/18 01:51:54;;;;;;;11.25;5.55;;;6.40;99.90;;;;;;4971031;28;20034;-74
2023/05/18 01:54:23;;;;;;;10.18;4.35;;;6.40;99.90;;;;;;4970203;28;20414;-74
2023/05/18 01:56:51;;;;;;;9.77;5.07;;;6.30;99.90;;;;;;4969051;28;20018;-73
2023/05/18 01:59:19;;;;;;;9.55;4.95;;;6.30;99.90;;;;;;4966024;28;20027;-74
2023/05/18 02:01:45;;;;;;;12.60;4.90;;;6.30;99.90;;;;;;4963713;28;20067;-74
2023/05/18 02:04:16;;;;;;;13.32;5.47;;;6.20;99.90;;;;;;4965361;28;20436;-74
2023/05/18 02:06:42;;;;;;;9.55;4.63;;;6.20;99.90;;;;;;4970943;28;20039;-74
2023/05/18 02:09:08;;;;;;;10.65;5.35;;;6.20;99.90;;;;;;4966830;28;20429;-74
2023/05/18 02:11:36;;;;;;;9.32;4.97;;;6.20;99.90;;;;;;4967689;28;20217;-74
2023/05/18 02:14:02;;;;;;;9.88;4.60;;;6.20;99.90;;;;;;4969211;28;20550;-74
2023/05/18 02:16:28;;;;;;;8.27;4.03;;;6.10;99.90;;;;;;4966343;28;20019;-74
2023/05/18 02:18:53;;;;;;;9.30;4.13;;;6.10;99.90;;;;;;4971609;28;20027;-74
2023/05/18 02:21:21;;;;;;;12.05;5.78;;;6.00;99.90;;;;;;4968924;28;20537;-74
2023/05/18 02:23:47;;;;;;;13.27;7.25;;;6.00;99.90;;;;;;4966208;28;20058;-74
2023/05/18 02:26:12;;;;;;;20.08;9.07;;;6.00;99.90;;;;;;4963912;28;20058;-73
2023/05/18 02:28:44;;;;;;;13.68;6.22;;;5.90;99.90;;;;;;4972582;28;20038;-74
2023/05/18 02:31:19;;;;;;;9.98;4.93;;;5.90;99.90;;;;;;4971201;28;20397;-74
2023/05/18 02:33:45;;;;;;;13.38;5.75;;;5.90;99.90;;;;;;4972316;28;20105;-74
2023/05/18 02:36:12;;;;;;;10.10;5.00;;;5.90;99.90;;;;;;4972927;28;20259;-74
2023/05/18 02:38:42;;;;;;;11.80;5.03;;;5.90;99.90;;;;;;4971361;28;20035;-73
2023/05/18 02:41:09;;;;;;;9.30;5.38;;;5.90;99.90;;;;;;4972967;28;20359;-73
2023/05/18 02:43:35;;;;;;;9.73;5.20;;;5.90;99.90;;;;;;4975229;28;20364;-73
2023/05/18 02:46:01;;;;;;;7.80;4.68;;;5.90;99.90;;;;;;4973233;28;20046;-73
2023/05/18 02:48:27;;;;;;;10.15;4.45;;;5.90;99.90;;;;;;4971219;28;20059;-73
2023/05/18 02:50:58;;;;;;;9.35;4.63;;;5.90;99.90;;;;;;4972438;28;20560;-73
2023/05/18 02:53:25;;;;;;;15.30;4.95;;;5.90;99.90;;;;;;4976671;28;20057;-73
2023/05/18 02:56:02;;;;;;;9.93;4.50;;;5.80;99.90;;;;;;4973303;28;20054;-73
2023/05/18 02:58:28;;;;;;;9.82;4.60;;;5.80;99.90;;;;;;4974606;28;20134;-74
2023/05/18 03:00:54;;;;;;;12.43;5.03;;;5.70;99.90;;;;;;4969905;28;20121;-73
2023/05/18 03:03:20;;;;;;;11.80;4.53;;;5.70;99.90;;;;;;4973662;28;20031;-76
2023/05/18 03:05:51;;;;;;;8.90;4.75;;;5.70;99.90;;;;;;4971503;28;20030;-73
2023/05/18 03:08:25;;;;;;;11.55;4.32;;;5.70;99.90;;;;;;4972031;28;20030;-73
2023/05/18 03:10:54;;;;;;;;;;;5.70;99.90;;;;;;4966098;28;20064;-74
2023/05/18 03:13:24;;;;;;;7.97;4.20;;;5.70;99.90;;;;;;4964054;28;20262;-76
2023/05/18 03:15:50;;;;;;;10.75;4.78;;;5.60;99.90;;;;;;4967867;28;20038;-76
2023/05/18 03:18:17;;;;;;;9.57;4.38;;;5.60;99.90;;;;;;4973163;28;20111;-74
2023/05/18 03:20:43;;;;;;;12.98;4.55;;;5.60;99.90;;;;;;4983549;28;20035;-74
2023/05/18 03:23:15;;;;;;;7.70;4.03;;;5.50;99.90;;;;;;4971354;28;20082;-74
2023/05/18 03:25:42;;;;;;;7.93;4.40;;;5.50;99.90;;;;;;4969104;28;20024;-76
2023/05/18 03:28:10;;;;;;;9.60;4.60;;;5.50;99.90;;;;;;4973428;28;20027;-75
2023/05/18 03:30:36;;;;;;;9.27;4.93;;;5.40;99.90;;;;;;4965633;28;20366;-75
2023/05/18 03:33:02;;;;;;;12.02;4.80;;;5.40;99.90;;;;;;4969011;28;20035;-76
2023/05/18 03:35:31;;;;;;;10.10;4.65;;;5.40;99.90;;;;;;4969373;28;20035;-76
2023/05/18 03:37:57;;;;;;;8.48;4.30;;;5.40;99.90;;;;;;4971454;28;20034;-75
2023/05/18 03:40:23;;;;;;;8.60;4.32;;;5.40;99.90;;;;;;4970657;28;20033;-76
2023/05/18 03:42:49;;;;;;;8.40;4.22;;;5.40;99.90;;;;;;4969179;28;20038;-75
2023/05/18 03:45:17;;;;;;;8.55;4.82;;;5.30;99.90;;;;;;4974019;28;20039;-76
2023/05/18 03:47:43;;;;;;;14.95;4.72;;;5.30;99.90;;;;;;4968523;28;20056;-76
2023/05/18 03:50:09;;;;;;;9.80;3.95;;;5.30;99.90;;;;;;4966194;28;20050;-76
2023/05/18 03:52:35;;;;;;;11.68;4.82;;;5.40;99.90;;;;;;4970592;28;20397;-75
2023/05/18 03:55:02;;;;;;;11.80;4.30;;;5.40;99.90;;;;;;4966183;28;20393;-76
2023/05/18 03:57:31;;;;;;;11.85;4.20;;;5.30;99.90;;;;;;4970204;28;20042;-76
2023/05/18 04:00:00;;;;;;;10.38;3.90;;;5.40;99.90;;;;;;4970217;28;20049;-76
2023/05/18 04:02:26;;;;;;;7.82;3.95;;;5.40;99.90;;;;;;4963864;28;20050;-76
2023/05/18 04:04:56;;;;;;;11.00;4.72;;;5.30;99.90;;;;;;4969706;28;20023;-76
2023/05/18 04:07:23;;;;;;;11.93;5.00;;;5.40;99.90;;;;;;4972435;28;20054;-76
2023/05/18 04:09:49;;;;;;;8.20;4.00;;;5.30;99.90;;;;;;4969778;28;20900;-76
2023/05/18 04:12:15;;;;;;;9.70;4.93;;;5.30;99.90;;;;;;5007379;23;20184;-75
2023/05/18 04:14:48;;;;;;;10.23;4.78;;;5.30;99.90;;;;;;4968329;28;21143;-76
2023/05/18 04:17:21;;;;;;;8.68;4.63;;;5.30;99.90;;;;;;4970899;28;20022;-76
2023/05/18 04:19:47;;;;;;;8.85;3.78;;;5.40;99.90;;;;;;4966572;28;20043;-76
2023/05/18 04:22:12;;;;;;;8.88;4.65;;;5.40;99.90;;;;;;4963154;28;20077;-74
2023/05/18 04:24:40;;;;;;;7.68;4.00;;;5.40;99.90;;;;;;4951357;28;20125;-76
2023/05/18 04:27:07;;;;;;;9.52;4.90;;;5.40;99.90;;;;;;4948675;28;20528;-74
2023/05/18 04:29:33;;;;;;;10.52;5.18;;;5.50;99.90;;;;;;4951048;28;20066;-76
2023/05/18 04:31:59;;;;;;;8.95;4.03;;;5.60;99.90;;;;;;4948953;28;20030;-76
2023/05/18 04:34:30;;;;;;;7.65;4.40;;;5.70;99.90;;;;;;4950356;28;20022;-76
2023/05/18 04:36:59;;;;;;;6.63;4.28;;;5.70;99.90;;;;;;4950187;28;20517;-75
2023/05/18 04:39:26;;;;;;;10.18;4.50;;;5.70;99.90;;;;;;4950894;28;20024;-75
2023/05/18 04:41:58;;;;;;;13.40;5.60;;;5.70;99.90;;;;;;4949061;28;20125;-76
2023/05/18 04:44:28;;;;;;;11.38;5.75;;;5.80;99.90;;;;;;4949857;28;20023;-76
2023/05/18 04:46:56;;;;;;;13.63;5.32;;;5.90;99.90;;;;;;4954074;28;20038;-76
2023/05/18 04:49:22;;;;;;;13.52;5.57;;;5.90;99.90;;;;;;4946490;28;20027;-76
2023/05/18 04:51:54;;;;;;;10.52;5.00;;;6.00;99.90;;;;;;4953531;28;20030;-75
2023/05/18 04:54:24;;;;;;;10.63;5.88;;;6.00;99.90;;;;;;4948848;28;20027;-76
2023/05/18 04:57:02;;;;;;;12.30;6.15;;;6.10;99.90;;;;;;4953690;28;20027;-76
2023/05/18 04:59:28;;;;;;;11.45;6.72;;;6.20;99.90;;;;;;4957201;28;20030;-76
2023/05/18 05:01:54;;;;;;;10.35;6.18;;;6.30;99.90;;;;;;4946054;28;21246;-75
2023/05/18 05:04:22;;;;;;;9.68;6.43;;;6.30;99.90;;;;;;4951566;28;20042;-75
2023/05/18 05:06:51;;;;;;;12.70;6.20;;;6.50;99.90;;;;;;4946281;28;20028;-75
2023/05/18 05:09:16;;;;;;;14.32;6.53;;;6.60;99.90;;;;;;4955125;28;20035;-74
2023/05/18 05:11:42;;;;;;;9.23;5.53;;;6.70;99.90;;;;;;4950787;28;20572;-75
2023/05/18 05:14:08;;;;;;;11.68;6.15;;;6.80;99.90;;;;;;4952013;28;20057;-76
2023/05/18 05:16:34;;;;;;;11.13;6.03;;;6.80;99.90;;;;;;4945957;28;20031;-75
2023/05/18 05:19:03;;;;;;;15.05;6.07;;;6.90;99.90;;;;;;4946834;28;20529;-76
2023/05/18 05:21:31;;;;;;;11.80;6.07;;;6.90;99.90;;;;;;4951578;28;20038;-76
2023/05/18 05:23:57;;;;;;;11.80;5.38;;;7.00;99.90;;;;;;4949379;28;20093;-76
2023/05/18 05:26:23;;;;;;;11.38;6.57;;;7.00;99.90;;;;;;4951024;28;20031;-75
2023/05/18 05:28:48;;;;;;;9.93;5.88;;;7.10;99.90;;;;;;4951167;28;20027;-77
2023/05/18 05:31:14;;;;;;;10.50;4.95;;;7.10;99.90;;;;;;4954291;28;20078;-75
2023/05/18 05:33:40;;;;;;;12.30;5.72;;;7.10;99.90;;;;;;4951344;28;20028;-75
2023/05/18 05:36:09;;;;;;;14.38;5.95;;;7.20;99.90;;;;;;4953589;28;20613;-75
2023/05/18 05:38:37;;;;;;;15.77;5.93;;;7.30;99.90;;;;;;4950563;28;20106;-75
2023/05/18 05:41:03;;;;;;;10.68;5.72;;;7.40;99.90;;;;;;4951328;28;20035;-74
2023/05/18 05:43:29;;;;;;;9.93;5.97;;;7.40;99.90;;;;;;4950889;28;20086;-75
2023/05/18 05:45:57;;;;;;;7.57;5.00;;;7.50;99.90;;;;;;4949673;28;20072;-74
2023/05/18 05:48:23;;;;;;;10.82;5.72;;;7.60;99.90;;;;;;4949847;28;20027;-75
2023/05/18 05:50:51;;;;;;;8.63;4.65;;;7.70;99.90;;;;;;4950860;28;20433;-74
2023/05/18 05:53:18;;;;;;;9.15;5.45;;;7.80;99.90;;;;;;4951173;28;20089;-74
2023/05/18 05:55:44;;;;;;;11.50;5.38;;;7.90;99.90;;;;;;4949922;28;20587;-76
2023/05/18 05:58:10;;;;;;;12.57;5.22;;;7.90;99.90;;;;;;4950654;28;20126;-75
2023/05/18 06:00:38;;;;;;;9.23;5.25;;;8.00;99.90;;;;;;4946825;28;20031;-76
2023/05/18 06:03:04;;;;;;;11.63;5.45;;;8.00;99.90;;;;;;4953567;28;20035;-73
2023/05/18 06:05:30;;;;;;;10.02;5.45;;;8.10;99.90;;;;;;4963556;28;20020;-74
2023/05/18 06:07:56;;;;;;;10.50;5.10;;;8.10;99.90;;;;;;4961292;28;20374;-76
2023/05/18 06:10:21;;;;;;;8.65;5.15;;;8.10;99.90;;;;;;4953493;28;20050;-76
2023/05/18 06:12:48;;;;;;;13.75;4.97;;;8.10;99.90;;;;;;4956669;28;20401;-70
2023/05/18 06:15:14;;;;;;;10.80;5.47;;;8.10;99.90;;;;;;4952376;28;20029;-76
2023/05/18 06:17:40;;;;;;;10.43;4.85;;;8.20;99.90;;;;;;4955291;28;20117;-75
2023/05/18 06:20:06;;;;;;;12.95;5.60;;;8.30;99.90;;;;;;4954406;28;20042;-76
2023/05/18 06:22:35;;;;;;;12.23;5.32;;;8.40;99.90;;;;;;4962660;28;20561;-71
2023/05/18 06:25:00;;;;;;;9.80;4.82;;;8.40;99.90;;;;;;4959816;28;20452;-71
2023/05/18 06:27:26;;;;;;;12.02;4.78;;;8.40;99.90;;;;;;4973820;28;20115;-71
2023/05/18 06:29:52;;;;;;;11.30;5.40;;;8.30;99.90;;;;;;4957469;28;20494;-73
2023/05/18 06:32:18;;;;;;;9.13;4.90;;;8.40;99.90;;;;;;4955716;28;20063;-72
2023/05/18 06:34:49;;;;;;;10.40;4.97;;;8.30;99.90;;;;;;4957566;28;20031;-76
2023/05/18 06:37:23;;;;;;;9.65;5.38;;;8.40;99.90;;;;;;4951770;28;20045;-74
2023/05/18 06:39:49;;;;;;;11.27;5.22;;;8.50;99.90;;;;;;4951653;28;20509;-75
2023/05/18 06:42:15;;;;;;;13.57;4.82;;;8.40;99.90;;;;;;4947831;28;20280;-74
2023/05/18 06:44:40;;;;;;;15.43;5.07;;;8.40;99.90;;;;;;4948944;28;20035;-73
2023/05/18 06:47:06;;;;;;;9.68;4.55;;;8.50;99.90;;;;;;4953387;28;20023;-72
2023/05/18 06:49:32;;;;;;;13.57;5.47;;;8.50;99.90;;;;;;4946638;28;20031;-72
2023/05/18 06:51:57;;;;;;;11.25;4.95;;;8.60;99.90;;;;;;4950115;28;20405;-72
2023/05/18 06:54:23;;;;;;;9.13;4.68;;;8.60;99.90;;;;;;4949511;28;20086;-72
2023/05/18 06:56:49;;;;;;;16.05;4.95;;;8.70;99.90;;;;;;4951836;28;20035;-74
2023/05/18 06:59:14;;;;;;;9.07;4.95;;;8.70;99.90;;;;;;4952132;28;20031;-73
2023/05/18 07:01:40;;;;;;;7.70;4.22;;;8.80;99.90;;;;;;4939755;28;20035;-73
2023/05/18 07:04:06;;;;;;;11.82;4.50;;;8.80;99.90;;;;;;4950171;28;20041;-74
2023/05/18 07:06:31;;;;;;;14.35;6.03;;;8.90;99.90;;;;;;4950945;28;20065;-72
2023/05/18 07:08:57;;;;;;;8.25;4.75;;;8.90;99.90;;;;;;4948181;28;20046;-73
2023/05/18 07:11:23;;;;;;;13.57;4.28;;;9.10;99.90;;;;;;4952145;28;20365;-74
2023/05/18 07:13:55;;;;;;;9.60;4.22;;;9.10;99.90;;;;;;4948527;28;20514;-74
2023/05/18 07:16:20;;;;;;;7.20;4.45;;;9.20;99.90;;;;;;4964332;28;20036;-73
2023/05/18 07:18:46;;;;;;;9.50;4.35;;;9.20;99.90;;;;;;4951182;28;20116;-74
2023/05/18 07:21:11;;;;;;;10.68;4.13;;;9.30;99.90;;;;;;4955670;28;20043;-76
2023/05/18 07:23:37;;;;;;;8.93;4.88;;;9.40;99.90;;;;;;4946295;28;20020;-74
2023/05/18 07:26:08;;;;;;;8.05;4.13;;;9.50;99.90;;;;;;4964587;28;20174;-74
2023/05/18 07:28:34;;;;;;;13.20;4.88;;;9.60;99.90;;;;;;4952629;28;20038;-76
2023/05/18 07:31:00;;;;;;;10.80;4.68;;;9.60;99.90;;;;;;4951783;28;20031;-75
2023/05/18 07:33:28;;;;;;;8.65;4.10;;;9.60;99.90;;;;;;4950056;28;20035;-74
2023/05/18 07:35:54;;;;;;;11.48;5.00;;;9.60;99.90;;;;;;4949736;28;20126;-75
2023/05/18 07:38:20;;;;;;;14.40;5.00;;;9.60;99.90;;;;;;4950993;28;20126;-73
2023/05/18 07:40:45;;;;;;;10.13;4.32;;;9.70;99.90;;;;;;4954660;28;20040;-74
2023/05/18 07:43:11;;;;;;;8.68;5.18;;;9.70;99.90;;;;;;4954074;28;20475;-75
2023/05/18 07:45:37;;;;;;;11.82;4.95;;;9.80;99.90;;;;;;4966586;28;20023;-76
2023/05/18 07:48:03;;;;;;;9.68;4.78;;;9.90;99.90;;;;;;4949267;28;20044;-75
2023/05/18 07:50:28;;;;;;;9.20;4.38;;;9.90;99.90;;;;;;4945528;28;20031;-75
2023/05/18 07:52:55;;;;;;;9.73;5.07;;;10.10;99.90;;;;;;4958770;28;20034;-73
2023/05/18 07:55:20;;;;;;;8.48;4.82;;;10.20;99.90;;;;;;4960585;28;20114;-76
2023/05/18 07:57:46;;;;;;;10.77;4.97;;;10.30;99.90;;;;;;4955656;28;20070;-68
2023/05/18 08:00:12;;;;;;;10.95;5.22;;;10.50;99.90;;;;;;4958648;28;20031;-71
2023/05/18 08:02:38;;;;;;;8.35;4.22;;;10.60;99.90;;;;;;4955938;28;20102;-73
2023/05/18 08:05:04;;;;;;;10.75;4.80;;;10.80;99.90;;;;;;4955252;28;20172;-69
2023/05/18 08:07:31;;;;;;;7.95;4.50;;;11.00;99.90;;;;;;4950068;28;20377;-70
2023/05/18 08:09:57;;;;;;;13.00;4.55;;;11.20;99.90;;;;;;4958016;28;20033;-75
2023/05/18 08:12:24;;;;;;;11.23;4.10;;;11.30;99.90;;;;;;4956646;28;20039;-78
2023/05/18 08:14:50;;;;;;;12.35;4.55;;;11.30;99.90;;;;;;4949688;28;20498;-73
2023/05/18 08:17:18;;;;;;;12.75;5.00;;;11.40;99.90;;;;;;4957300;28;20039;-76
2023/05/18 08:19:44;;;;;;;15.52;4.90;;;11.40;99.90;;;;;;4954410;28;20047;-73
2023/05/18 08:22:10;;;;;;;6.90;4.10;;;11.60;99.90;;;;;;4950231;28;20069;-71
2023/05/18 08:24:38;;;;;;;11.30;4.70;;;11.70;99.90;;;;;;4936758;29;20043;-71
2023/05/18 08:27:07;;;;;;;12.68;5.32;;;11.80;99.90;;;;;;4947244;28;20023;-70
2023/05/18 08:29:32;;;;;;;11.63;4.38;;;11.90;99.90;;;;;;4955961;28;20067;-70
2023/05/18 08:31:58;;;;;;;9.82;4.50;;;12.10;99.90;;;;;;4955225;28;20086;-72
2023/05/18 08:34:24;;;;;;;7.93;4.20;;;12.20;99.90;;;;;;4953911;28;20031;-70
2023/05/18 08:36:51;;;;;;;10.80;4.32;;;12.20;99.90;;;;;;4955124;28;20085;-71
2023/05/18 08:39:16;;;;;;;9.25;4.40;;;12.30;99.90;;;;;;4952453;28;20038;-73
2023/05/18 08:41:59;;;;;;;10.38;4.07;;;12.40;99.90;;;;;;4950770;28;20031;-72
2023/05/18 08:44:30;;;;;;;11.48;4.40;;;12.40;99.90;;;;;;4952873;28;20542;-74
2023/05/18 08:46:55;;;;;;;14.00;4.90;;;12.40;99.90;;;;;;4951699;28;20038;-73
2023/05/18 08:49:23;;;;;;;10.95;4.75;;;12.40;99.90;;;;;;4948663;28;20016;-73
2023/05/18 08:51:59;;;;;;;10.85;5.20;;;12.40;99.90;;;;;;4950003;28;20390;-73
2023/05/18 08:54:26;;;;;;;8.38;4.13;;;12.40;99.90;;;;;;4950896;28;20035;-73
2023/05/18 08:56:52;;;;;;;9.80;4.78;;;12.40;99.90;;;;;;4948066;28;20055;-72
2023/05/18 08:59:23;;;;;;;11.07;4.63;;;12.40;99.90;;;;;;4950289;28;20055;-73
2023/05/18 09:01:50;;;;;;;8.43;4.10;;;12.40;99.90;;;;;;4949966;28;20046;-73
2023/05/18 09:04:17;;;;;;;11.73;4.57;;;12.40;99.90;;;;;;4946870;28;20038;-73
2023/05/18 09:06:43;;;;;;;10.73;4.03;;;12.40;99.90;;;;;;4945366;28;20430;-72
2023/05/18 09:09:10;;;;;;;8.20;4.05;;;12.50;99.90;;;;;;4948283;28;20032;-74
2023/05/18 09:11:38;;;;;;;12.38;4.07;;;12.60;99.90;;;;;;4944730;28;20034;-74
2023/05/18 09:14:03;;;;;;;8.68;3.50;;;12.70;99.90;;;;;;4946280;28;20505;-74
2023/05/18 09:16:30;;;;;;;12.75;4.47;;;12.70;99.90;;;;;;4942754;28;20027;-73
2023/05/18 09:18:59;;;;;;;9.63;4.03;;;12.80;99.90;;;;;;4950263;28;20114;-74
2023/05/18 09:21:25;;;;;;;13.82;3.67;;;13.00;99.90;;;;;;4947467;28;20031;-73
2023/05/18 09:23:54;;;;;;;8.93;3.53;;;13.10;99.90;;;;;;4945616;28;20052;-73
2023/05/18 09:26:21;;;;;;;8.63;3.20;;;13.30;99.60;;;;;;4945959;28;21176;-74
2023/05/18 09:28:51;;;;;;;10.90;3.50;;;13.60;98.50;;;;;;4944100;28;20168;-74
2023/05/18 09:31:18;;;;;;;9.55;3.58;;;13.90;97.90;;;;;;4946922;28;20023;-72
2023/05/18 09:33:45;;;;;;;6.95;3.40;;;14.10;97.70;;;;;;4934729;28;20035;-73
2023/05/18 09:36:13;;;;;;;8.05;3.83;;;14.20;96.50;;;;;;4944075;28;20046;-72
2023/05/18 09:38:45;;;;;;;7.70;3.40;;;14.40;95.60;;;;;;4945768;28;20486;-73
2023/05/18 09:41:13;;;;;;;7.13;3.17;;;14.50;94.90;;;;;;4947825;28;20125;-73
2023/05/18 09:43:40;;;;;;;10.65;3.45;;;14.50;94.80;;;;;;4944605;28;20690;-73
2023/05/18 09:46:07;;;;;;;8.57;3.83;;;14.50;94.40;;;;;;4950167;28;20027;-72
2023/05/18 09:48:41;;;;;;;8.88;3.45;;;14.50;94.30;;;;;;4950721;28;20459;-74
2023/05/18 09:51:15;;;;;;;9.45;3.15;;;14.50;94.30;;;;;;4948296;28;20050;-74
2023/05/18 09:53:41;;;;;;;7.22;2.58;;;14.60;93.60;;;;;;4941314;28;20817;-74
2023/05/18 09:56:10;;;;;;;7.28;3.08;;;14.60;93.20;;;;;;4950903;28;20039;-74
2023/05/18 09:58:42;;;;;;;6.22;2.90;;;14.80;92.60;;;;;;4951444;28;20035;-73
2023/05/18 10:01:11;;;;;;;11.77;3.65;;;14.70;92.80;;;;;;4950230;28;20536;-74
2023/05/18 10:03:37;;;;;;;6.97;3.13;;;14.80;92.70;;;;;;4946388;28;20053;-73
2023/05/18 10:06:06;;;;;;;11.38;3.85;;;14.90;92.70;;;;;;4943307;28;20027;-74
2023/05/18 10:08:37;;;;;;;9.60;3.75;;;14.90;91.60;;;;;;4952204;28;20485;-73
2023/05/18 10:11:06;;;;;;;8.75;2.78;;;14.90;91.60;;;;;;4948097;28;20035;-74
2023/05/18 10:13:41;;;;;;;10.30;3.22;;;14.90;91.40;;;;;;4960265;23;20051;-78
2023/05/18 10:16:07;;;;;;;10.65;3.95;;;14.80;91.50;;;;;;4965208;28;20027;-80
2023/05/18 10:18:37;;;;;;;8.02;3.00;;;14.90;91.60;;;;;;4973533;28;20396;-80
2023/05/18 10:21:07;;;;;;;8.32;2.72;;;14.90;90.90;;;;;;4966642;28;20073;-80
2023/05/18 10:23:34;;;;;;;10.10;3.35;;;14.90;90.70;;;;;;4959551;28;20477;-81
2023/05/18 10:26:03;;;;;;;9.80;2.95;;;14.80;89.90;;;;;;4967802;28;20030;-79
2023/05/18 10:28:44;;;;;;;8.40;2.70;;;14.90;89.80;;;;;;4973681;28;20090;-79
2023/05/18 10:31:14;;;;;;;12.35;4.28;;;14.90;90.10;;;;;;4971792;28;20779;-80
2023/05/18 10:33:44;;;;;;;7.95;3.35;;;14.90;89.50;;;;;;4970630;28;20031;-79
2023/05/18 10:36:24;;;;;;;12.85;3.28;;;15.00;89.90;;;;;;4968618;28;20031;-81
2023/05/18 10:38:50;;;;;;;7.38;2.95;;;15.00;88.80;;;;;;4966456;28;20512;-81
2023/05/18 10:41:20;;;;;;;9.15;3.20;;;15.10;88.60;;;;;;4971891;28;20023;-80
2023/05/18 10:43:47;;;;;;;12.15;2.88;;;15.10;88.50;;;;;;4983575;28;20035;-80
2023/05/18 10:46:14;;;;;;;10.15;3.20;;;15.10;88.80;;;;;;4968024;28;20388;-80
2023/05/18 10:48:50;;;;;;;8.15;3.45;;;15.20;87.80;;;;;;4971352;28;20062;-80
2023/05/18 10:51:17;;;;;;;6.22;2.83;;;15.10;87.30;;;;;;4970575;28;20035;-80
2023/05/18 10:53:46;;;;;;;11.20;4.07;;;15.10;86.90;;;;;;4971357;28;20031;-80
2023/05/18 10:56:15;;;;;;;8.70;3.15;;;15.20;86.50;;;;;;4968544;28;20038;-80
2023/05/18 10:58:42;;;;;;;16.70;3.50;;;15.20;85.10;;;;;;4972330;28;20047;-80
2023/05/18 11:01:21;;;;;;;8.23;2.90;;;15.10;84.90;;;;;;4972170;28;20125;-80
2023/05/18 11:03:49;;;;;;;7.47;2.63;;;15.20;85.90;;;;;;4975164;28;20049;-80
2023/05/18 11:06:23;;;;;;;10.68;3.22;;;15.10;85.70;;;;;;4969921;28;20028;-79
2023/05/18 11:08:49;;;;;;;9.23;3.53;;;15.20;85.00;;;;;;4965328;28;20031;-80
2023/05/18 11:11:15;;;;;;;7.10;2.88;;;15.20;84.80;;;;;;4968670;28;20041;-80
2023/05/18 11:13:48;;;;;;;9.55;3.28;;;15.20;84.30;;;;;;4969671;28;20054;-80
2023/05/18 11:16:19;;;;;;;6.85;2.80;;;15.20;84.20;;;;;;4973507;28;20026;-79
2023/05/18 11:18:48;;;;;;;7.57;3.35;;;15.20;84.30;;;;;;4970005;28;20067;-79
2023/05/18 11:21:35;;;;;;;9.50;2.70;;;15.30;84.60;;;;;;4970897;28;20034;-79
2023/05/18 11:24:19;;;;;;;9.18;3.10;;;15.30;82.20;;;;;;4987910;28;20107;-78
2023/05/18 11:26:50;;;;;;;4.85;2.20;;;15.40;81.80;;;;;;4967726;28;20069;-79
2023/05/18 11:29:20;;;;;;;5.50;2.30;;;15.40;81.20;;;;;;4977660;28;20508;-79
2023/05/18 11:31:49;;;;;;;9.63;3.00;;;15.40;81.40;;;;;;4974964;28;20035;-79
2023/05/18 11:34:43;;;;;;;8.25;2.10;;;15.50;82.50;;;;;;4973757;28;20557;-79
2023/05/18 11:37:16;;;;;;;;;;;15.60;82.10;;;;;;4974562;28;20363;-79
2023/05/18 11:39:53;;;;;;;6.97;3.15;;;15.80;81.70;;;;;;4973975;28;20016;-79
2023/05/18 11:42:32;;;;;;;7.28;2.75;;;15.90;81.60;;;;;;4947024;28;20039;-79
2023/05/18 11:45:08;;;;;;;6.05;3.13;;;16.00;81.80;;;;;;4962616;28;20936;-79
2023/05/18 11:47:41;;;;;;;11.65;3.40;;;15.90;82.20;;;;;;4970243;28;20031;-78
2023/05/18 11:50:07;;;;;;;8.10;2.50;;;15.90;82.30;;;;;;4965967;28;20023;-80
2023/05/18 11:52:44;;;;;;;6.90;2.72;;;15.90;82.90;;;;;;4972953;28;20033;-79
2023/05/18 11:55:13;;;;;;;10.25;2.67;;;15.90;82.90;;;;;;4974087;28;20080;-79
2023/05/18 11:57:40;;;;;;;4.75;2.33;;;15.90;82.50;;;;;;4975399;28;20390;-79
2023/05/18 12:00:11;;;;;;;10.02;3.05;;;15.90;81.20;;;;;;4970783;28;20026;-79
2023/05/18 12:02:37;;;;;;;5.28;2.70;;;16.00;82.20;;;;;;4975069;28;20030;-79
2023/05/18 12:05:07;;;;;;;10.82;3.88;;;16.00;80.80;;;;;;4988900;28;20070;-79
2023/05/18 12:07:37;;;;;;;9.45;3.22;;;16.00;80.80;;;;;;4974873;28;20019;-79
2023/05/18 12:10:07;;;;;;;5.78;2.38;;;16.00;80.40;;;;;;4983444;28;20035;-79
2023/05/18 12:12:33;;;;;;;7.45;2.92;;;16.00;80.10;;;;;;4972394;28;20445;-79
2023/05/18 12:15:02;;;;;;;9.25;2.90;;;16.10;80.20;;;;;;4968577;28;20125;-77
2023/05/18 12:17:45;;;;;;;12.23;3.67;;;16.10;80.30;;;;;;4986952;28;20062;-79
2023/05/18 12:20:18;;;;;;;6.60;2.50;;;16.10;80.40;;;;;;4969221;28;20022;-79
2023/05/18 12:22:53;;;;;;;14.52;4.47;;;16.10;80.90;;;;;;4966010;28;20519;-79
2023/05/18 12:25:20;;;;;;;7.30;2.40;;;16.10;81.00;;;;;;4973877;28;21008;-78
2023/05/18 12:27:53;;;;;;;8.23;3.05;;;16.20;81.40;;;;;;4971678;28;20122;-79
2023/05/18 12:30:35;;;;;;;9.15;2.40;;;16.20;81.30;;;;;;4969056;28;20035;-78
2023/05/18 12:33:03;;;;;;;7.28;2.78;;;16.20;81.80;;;;;;4975972;28;20030;-79
2023/05/18 12:35:29;;;;;;;6.00;2.20;;;16.30;81.50;;;;;;4974920;28;20577;-78
2023/05/18 12:38:01;;;;;;;3.53;1.90;;;16.20;80.10;;;;;;4970814;28;20114;-78
2023/05/18 12:40:57;;;;;;;7.35;2.38;;;16.10;79.30;;;;;;4964545;28;20114;-78
2023/05/18 12:43:37;;;;;;;7.95;2.53;;;16.10;79.40;;;;;;4971136;28;20482;-78
2023/05/18 12:46:15;;;;;;;4.90;2.10;;;16.20;80.10;;;;;;4970969;28;20039;-79
2023/05/18 12:48:54;;;;;;;6.70;2.08;;;16.20;79.50;;;;;;4984046;28;20104;-79
2023/05/18 12:51:29;;;;;;;7.38;2.33;;;16.20;79.50;;;;;;4963176;28;20027;-79
2023/05/18 12:53:55;;;;;;;4.38;1.70;;;16.20;79.30;;;;;;4974239;28;20027;-78
2023/05/18 12:57:04;;;;;;;6.88;2.33;;;16.30;79.10;;;;;;4971492;28;20038;-78